sensor_id;sensor_type;location;lat;lon;timestamp;pressure;altitude;pressure_sealevel;temperature;humidity
54453;BME280;40363;52.270;10.546;2023-08-01T00:01:52;74658.38;;;-147.06;100.00
54453;BME280;40363;52.270;10.546;2023-08-01T00:04:18;74664.53;;;-147.06;100.00
54453;BME280;40363;52.270;10.546;2023-08-01T00:06:45;74660.44;;;-147.06;100.00
54453;BME280;40363;52.270;10.546;2023-08-01T00:09:11;74652.22;;;-147.06;100.00
54453;BME280;40363;52.270;10.546;2023-08-01T00:11:38;74633.72;;;-147.06;100.00
54453;BME280;40363;52.270;10.546;2023-08-01T00:14:04;74619.34;;;-147.06;100.00
54453;BME280;40363;52.270;10.546;2023-08-01T00:16:31;74617.28;;;-147.06;100.00
54453;BME280;40363;52.270;10.546;2023-08-01T00:18:59;74621.41;;;-147.06;100.00
54453;BME280;40363;52.270;10.546;2023-08-01T00:21:26;74627.56;;;-147.06;100.00
54453;BME280;40363;52.270;10.546;2023-08-01T00:23:52;74617.28;;;-147.06;100.00
54453;BME280;40363;52.270;10.546;2023-08-01T00:26:19;74607.00;;;-147.06;100.00
54453;BME280;40363;52.270;10.546;2023-08-01T00:28:46;74613.19;;;-147.06;100.00
54453;BME280;40363;52.270;10.546;2023-08-01T00:31:12;74600.84;;;-147.06;100.00
54453;BME280;40363;52.270;10.546;2023-08-01T00:33:39;74598.78;;;-147.06;100.00
54453;BME280;40363;52.270;10.546;2023-08-01T00:36:07;74600.84;;;-147.06;100.00
54453;BME280;40363;52.270;10.546;2023-08-01T00:38:36;74609.06;;;-147.06;100.00
54453;BME280;40363;52.270;10.546;2023-08-01T00:41:03;74600.84;;;-147.06;100.00
54453;BME280;40363;52.270;10.546;2023-08-01T00:43:29;74588.53;;;-147.06;100.00
54453;BME280;40363;52.270;10.546;2023-08-01T00:46:00;74590.56;;;-147.06;100.00
54453;BME280;40363;52.270;10.546;2023-08-01T00:48:27;74578.25;;;-147.06;100.00
54453;BME280;40363;52.270;10.546;2023-08-01T00:50:54;74578.25;;;-147.06;100.00
54453;BME280;40363;52.270;10.546;2023-08-01T00:53:24;74582.34;;;-147.06;100.00
54453;BME280;40363;52.270;10.546;2023-08-01T00:55:51;74574.13;;;-147.06;100.00
54453;BME280;40363;52.270;10.546;2023-08-01T00:58:18;74574.13;;;-147.06;100.00
54453;BME280;40363;52.270;10.546;2023-08-01T01:00:45;74570.03;;;-147.06;100.00
54453;BME280;40363;52.270;10.546;2023-08-01T01:03:11;74563.88;;;-147.06;100.00
54453;BME280;40363;52.270;10.546;2023-08-01T01:05:41;74567.97;;;-147.06;100.00
54453;BME280;40363;52.270;10.546;2023-08-01T01:08:09;74565.91;;;-147.06;100.00
54453;BME280;40363;52.270;10.546;2023-08-01T01:10:37;74574.13;;;-147.06;100.00
54453;BME280;40363;52.270;10.546;2023-08-01T01:13:04;74559.75;;;-147.06;100.00
54453;BME280;40363;52.270;10.546;2023-08-01T01:15:30;74570.03;;;-147.06;100.00
54453;BME280;40363;52.270;10.546;2023-08-01T01:17:57;74570.03;;;-147.06;100.00
54453;BME280;40363;52.270;10.546;2023-08-01T01:20:25;74561.81;;;-147.06;100.00
54453;BME280;40363;52.270;10.546;2023-08-01T01:22:54;74557.72;;;-147.06;100.00
54453;BME280;40363;52.270;10.546;2023-08-01T01:25:22;74553.59;;;-147.06;100.00
54453;BME280;40363;52.270;10.546;2023-08-01T01:27:51;74549.50;;;-147.06;100.00
54453;BME280;40363;52.270;10.546;2023-08-01T01:30:19;74551.53;;;-147.06;100.00
54453;BME280;40363;52.270;10.546;2023-08-01T01:32:46;74553.59;;;-147.06;100.00
54453;BME280;40363;52.270;10.546;2023-08-01T01:35:14;74545.38;;;-147.06;100.00
54453;BME280;40363;52.270;10.546;2023-08-01T01:37:40;74539.22;;;-147.06;100.00
54453;BME280;40363;52.270;10.546;2023-08-01T01:40:09;74537.16;;;-147.06;100.00
54453;BME280;40363;52.270;10.546;2023-08-01T01:42:36;74537.16;;;-147.06;100.00
54453;BME280;40363;52.270;10.546;2023-08-01T01:45:04;74537.16;;;-147.06;100.00
54453;BME280;40363;52.270;10.546;2023-08-01T01:47:30;74535.09;;;-147.06;100.00
54453;BME280;40363;52.270;10.546;2023-08-01T01:49:57;74528.94;;;-147.06;100.00
54453;BME280;40363;52.270;10.546;2023-08-01T01:52:23;74531.00;;;-147.06;100.00
54453;BME280;40363;52.270;10.546;2023-08-01T01:54:50;74533.06;;;-147.06;100.00
54453;BME280;40363;52.270;10.546;2023-08-01T01:57:18;74524.84;;;-147.06;100.00
54453;BME280;40363;52.270;10.546;2023-08-01T01:59:44;74535.09;;;-147.06;100.00
54453;BME280;40363;52.270;10.546;2023-08-01T02:02:11;74520.72;;;-147.06;100.00
54453;BME280;40363;52.270;10.546;2023-08-01T02:04:38;74531.00;;;-147.06;100.00
54453;BME280;40363;52.270;10.546;2023-08-01T02:07:05;74522.78;;;-147.06;100.00
54453;BME280;40363;52.270;10.546;2023-08-01T02:09:31;74524.84;;;-147.06;100.00
54453;BME280;40363;52.270;10.546;2023-08-01T02:11:58;74524.84;;;-147.06;100.00
54453;BME280;40363;52.270;10.546;2023-08-01T02:14:26;74508.41;;;-147.06;100.00
54453;BME280;40363;52.270;10.546;2023-08-01T02:16:52;74500.19;;;-147.06;100.00
54453;BME280;40363;52.270;10.546;2023-08-01T02:19:19;74496.06;;;-147.06;100.00
54453;BME280;40363;52.270;10.546;2023-08-01T02:21:45;74506.34;;;-147.06;100.00
54453;BME280;40363;52.270;10.546;2023-08-01T02:24:12;74498.13;;;-147.06;100.00
54453;BME280;40363;52.270;10.546;2023-08-01T02:26:39;74508.41;;;-147.06;100.00
54453;BME280;40363;52.270;10.546;2023-08-01T02:29:05;74508.41;;;-147.06;100.00
54453;BME280;40363;52.270;10.546;2023-08-01T02:31:33;74504.28;;;-147.06;100.00
54453;BME280;40363;52.270;10.546;2023-08-01T02:34:00;74520.72;;;-147.06;100.00
54453;BME280;40363;52.270;10.546;2023-08-01T02:36:27;74520.72;;;-147.06;100.00
54453;BME280;40363;52.270;10.546;2023-08-01T02:38:54;74508.41;;;-147.06;100.00
54453;BME280;40363;52.270;10.546;2023-08-01T02:41:20;74522.78;;;-147.06;100.00
54453;BME280;40363;52.270;10.546;2023-08-01T02:43:47;74512.50;;;-147.06;100.00
54453;BME280;40363;52.270;10.546;2023-08-01T02:46:14;74520.72;;;-147.06;100.00
54453;BME280;40363;52.270;10.546;2023-08-01T02:48:42;74518.66;;;-147.06;100.00
54453;BME280;40363;52.270;10.546;2023-08-01T02:51:08;74518.66;;;-147.06;100.00
54453;BME280;40363;52.270;10.546;2023-08-01T02:53:35;74514.56;;;-147.06;100.00
54453;BME280;40363;52.270;10.546;2023-08-01T02:56:02;74512.50;;;-147.06;100.00
54453;BME280;40363;52.270;10.546;2023-08-01T02:58:31;74500.19;;;-147.06;100.00
54453;BME280;40363;52.270;10.546;2023-08-01T03:00:58;74491.97;;;-147.06;100.00
54453;BME280;40363;52.270;10.546;2023-08-01T03:03:25;74487.84;;;-147.06;100.00
54453;BME280;40363;52.270;10.546;2023-08-01T03:05:53;74479.63;;;-147.06;100.00
54453;BME280;40363;52.270;10.546;2023-08-01T03:08:19;74483.75;;;-147.06;100.00
54453;BME280;40363;52.270;10.546;2023-08-01T03:10:46;74475.53;;;-147.06;100.00
54453;BME280;40363;52.270;10.546;2023-08-01T03:13:13;74475.53;;;-147.06;100.00
54453;BME280;40363;52.270;10.546;2023-08-01T03:15:39;74487.84;;;-147.06;100.00
54453;BME280;40363;52.270;10.546;2023-08-01T03:18:06;74473.47;;;-147.06;100.00
54453;BME280;40363;52.270;10.546;2023-08-01T03:20:33;74471.44;;;-147.06;100.00
54453;BME280;40363;52.270;10.546;2023-08-01T03:23:01;74475.53;;;-147.06;100.00
54453;BME280;40363;52.270;10.546;2023-08-01T03:25:27;74469.38;;;-147.06;100.00
54453;BME280;40363;52.270;10.546;2023-08-01T03:27:54;74477.59;;;-147.06;100.00
54453;BME280;40363;52.270;10.546;2023-08-01T03:30:21;74471.44;;;-147.06;100.00
54453;BME280;40363;52.270;10.546;2023-08-01T03:32:47;74465.25;;;-147.06;100.00
54453;BME280;40363;52.270;10.546;2023-08-01T03:35:14;74463.22;;;-147.06;100.00
54453;BME280;40363;52.270;10.546;2023-08-01T03:37:40;74450.88;;;-147.06;100.00
54453;BME280;40363;52.270;10.546;2023-08-01T03:40:09;74455.00;;;-147.06;100.00
54453;BME280;40363;52.270;10.546;2023-08-01T03:42:35;74455.00;;;-147.06;100.00
54453;BME280;40363;52.270;10.546;2023-08-01T03:45:03;74455.00;;;-147.06;100.00
54453;BME280;40363;52.270;10.546;2023-08-01T03:47:30;74457.03;;;-147.06;100.00
54453;BME280;40363;52.270;10.546;2023-08-01T03:49:57;74446.78;;;-147.06;100.00
54453;BME280;40363;52.270;10.546;2023-08-01T03:52:24;74448.81;;;-147.06;100.00
54453;BME280;40363;52.270;10.546;2023-08-01T03:54:53;74442.66;;;-147.06;100.00
54453;BME280;40363;52.270;10.546;2023-08-01T03:57:21;74440.59;;;-147.06;100.00
54453;BME280;40363;52.270;10.546;2023-08-01T03:59:48;74440.59;;;-147.06;100.00
54453;BME280;40363;52.270;10.546;2023-08-01T04:02:15;74432.38;;;-147.06;100.00
54453;BME280;40363;52.270;10.546;2023-08-01T04:04:41;74426.22;;;-147.06;100.00
54453;BME280;40363;52.270;10.546;2023-08-01T04:07:08;74430.34;;;-147.06;100.00
54453;BME280;40363;52.270;10.546;2023-08-01T04:09:34;74424.16;;;-147.06;100.00
54453;BME280;40363;52.270;10.546;2023-08-01T04:12:04;74432.38;;;-147.06;100.00
54453;BME280;40363;52.270;10.546;2023-08-01T04:14:33;74426.22;;;-147.06;100.00
54453;BME280;40363;52.270;10.546;2023-08-01T04:17:00;74428.28;;;-147.06;100.00
54453;BME280;40363;52.270;10.546;2023-08-01T04:19:26;74432.38;;;-147.06;100.00
54453;BME280;40363;52.270;10.546;2023-08-01T04:21:53;74422.13;;;-147.06;100.00
54453;BME280;40363;52.270;10.546;2023-08-01T04:24:19;74422.13;;;-147.06;100.00
54453;BME280;40363;52.270;10.546;2023-08-01T04:26:46;74426.22;;;-147.06;100.00
54453;BME280;40363;52.270;10.546;2023-08-01T04:29:13;74424.16;;;-147.06;100.00
54453;BME280;40363;52.270;10.546;2023-08-01T04:31:42;74428.28;;;-147.06;100.00
54453;BME280;40363;52.270;10.546;2023-08-01T04:34:09;74438.56;;;-147.06;100.00
54453;BME280;40363;52.270;10.546;2023-08-01T04:36:36;74432.38;;;-147.06;100.00
54453;BME280;40363;52.270;10.546;2023-08-01T04:39:02;74426.22;;;-147.06;100.00
54453;BME280;40363;52.270;10.546;2023-08-01T04:41:29;74426.22;;;-147.06;100.00
54453;BME280;40363;52.270;10.546;2023-08-01T04:43:55;74432.38;;;-147.06;100.00
54453;BME280;40363;52.270;10.546;2023-08-01T04:46:22;74426.22;;;-147.06;100.00
54453;BME280;40363;52.270;10.546;2023-08-01T04:48:50;74415.97;;;-147.06;100.00
54453;BME280;40363;52.270;10.546;2023-08-01T04:51:16;74418.00;;;-147.06;100.00
54453;BME280;40363;52.270;10.546;2023-08-01T04:53:43;74418.00;;;-147.06;100.00
54453;BME280;40363;52.270;10.546;2023-08-01T04:56:09;74430.34;;;-147.06;100.00
54453;BME280;40363;52.270;10.546;2023-08-01T04:58:36;74422.13;;;-147.06;100.00
54453;BME280;40363;52.270;10.546;2023-08-01T05:01:03;74418.00;;;-147.06;100.00
54453;BME280;40363;52.270;10.546;2023-08-01T05:03:29;74422.13;;;-147.06;100.00
54453;BME280;40363;52.270;10.546;2023-08-01T05:05:57;74422.13;;;-147.06;100.00
54453;BME280;40363;52.270;10.546;2023-08-01T05:08:24;74420.06;;;-147.06;100.00
54453;BME280;40363;52.270;10.546;2023-08-01T05:10:50;74428.28;;;-147.06;100.00
54453;BME280;40363;52.270;10.546;2023-08-01T05:13:18;74420.06;;;-147.06;100.00
54453;BME280;40363;52.270;10.546;2023-08-01T05:15:45;74420.06;;;-147.06;100.00
54453;BME280;40363;52.270;10.546;2023-08-01T05:18:13;74426.22;;;-147.06;100.00
54453;BME280;40363;52.270;10.546;2023-08-01T05:20:39;74430.34;;;-147.06;100.00
54453;BME280;40363;52.270;10.546;2023-08-01T05:23:07;74434.44;;;-147.06;100.00
54453;BME280;40363;52.270;10.546;2023-08-01T05:25:34;74444.72;;;-147.06;100.00
54453;BME280;40363;52.270;10.546;2023-08-01T05:28:00;74430.34;;;-147.06;100.00
54453;BME280;40363;52.270;10.546;2023-08-01T05:30:27;74436.50;;;-147.06;100.00
54453;BME280;40363;52.270;10.546;2023-08-01T05:32:53;74430.34;;;-147.06;100.00
54453;BME280;40363;52.270;10.546;2023-08-01T05:35:20;74438.56;;;-147.06;100.00
54453;BME280;40363;52.270;10.546;2023-08-01T05:37:47;74432.38;;;-147.06;100.00
54453;BME280;40363;52.270;10.546;2023-08-01T05:40:15;74428.28;;;-147.06;100.00
54453;BME280;40363;52.270;10.546;2023-08-01T05:42:41;74440.59;;;-147.06;100.00
54453;BME280;40363;52.270;10.546;2023-08-01T05:45:09;74434.44;;;-147.06;100.00
54453;BME280;40363;52.270;10.546;2023-08-01T05:47:36;74438.56;;;-147.06;100.00
54453;BME280;40363;52.270;10.546;2023-08-01T05:50:05;74438.56;;;-147.06;100.00
54453;BME280;40363;52.270;10.546;2023-08-01T05:52:33;74438.56;;;-147.06;100.00
54453;BME280;40363;52.270;10.546;2023-08-01T05:54:59;74455.00;;;-147.06;100.00
54453;BME280;40363;52.270;10.546;2023-08-01T05:57:27;74448.81;;;-147.06;100.00
54453;BME280;40363;52.270;10.546;2023-08-01T05:59:54;74471.44;;;-147.06;100.00
54453;BME280;40363;52.270;10.546;2023-08-01T06:02:21;74471.44;;;-147.06;100.00
54453;BME280;40363;52.270;10.546;2023-08-01T06:04:47;74465.25;;;-147.06;100.00
54453;BME280;40363;52.270;10.546;2023-08-01T06:07:14;74471.44;;;-147.06;100.00
54453;BME280;40363;52.270;10.546;2023-08-01T06:09:40;74483.75;;;-147.06;100.00
54453;BME280;40363;52.270;10.546;2023-08-01T06:12:07;74475.53;;;-147.06;100.00
54453;BME280;40363;52.270;10.546;2023-08-01T06:14:35;74471.44;;;-147.06;100.00
54453;BME280;40363;52.270;10.546;2023-08-01T06:17:01;74471.44;;;-147.06;100.00
54453;BME280;40363;52.270;10.546;2023-08-01T06:19:28;74469.38;;;-147.06;100.00
54453;BME280;40363;52.270;10.546;2023-08-01T06:21:55;74469.38;;;-147.06;100.00
54453;BME280;40363;52.270;10.546;2023-08-01T06:24:21;74467.31;;;-147.06;100.00
54453;BME280;40363;52.270;10.546;2023-08-01T06:26:48;74475.53;;;-147.06;100.00
54453;BME280;40363;52.270;10.546;2023-08-01T06:29:17;74471.44;;;-147.06;100.00
54453;BME280;40363;52.270;10.546;2023-08-01T06:31:45;74467.31;;;-147.06;100.00
54453;BME280;40363;52.270;10.546;2023-08-01T06:34:11;74465.25;;;-147.06;100.00
54453;BME280;40363;52.270;10.546;2023-08-01T06:36:38;74473.47;;;-147.06;100.00
54453;BME280;40363;52.270;10.546;2023-08-01T06:39:04;74471.44;;;-147.06;100.00
54453;BME280;40363;52.270;10.546;2023-08-01T06:41:31;74471.44;;;-147.06;100.00
54453;BME280;40363;52.270;10.546;2023-08-01T06:43:58;74481.69;;;-147.06;100.00
54453;BME280;40363;52.270;10.546;2023-08-01T06:46:24;74500.19;;;-147.06;100.00
54453;BME280;40363;52.270;10.546;2023-08-01T06:48:52;74487.84;;;-147.06;100.00
54453;BME280;40363;52.270;10.546;2023-08-01T06:51:18;74487.84;;;-147.06;100.00
54453;BME280;40363;52.270;10.546;2023-08-01T06:53:45;74471.44;;;-147.06;100.00
54453;BME280;40363;52.270;10.546;2023-08-01T06:56:12;74446.78;;;-147.06;100.00
54453;BME280;40363;52.270;10.546;2023-08-01T06:58:38;74446.78;;;-147.06;100.00
54453;BME280;40363;52.270;10.546;2023-08-01T07:01:05;74438.56;;;-147.06;100.00
54453;BME280;40363;52.270;10.546;2023-08-01T07:03:31;74442.66;;;-147.06;100.00
54453;BME280;40363;52.270;10.546;2023-08-01T07:05:59;74442.66;;;-147.06;100.00
54453;BME280;40363;52.270;10.546;2023-08-01T07:08:26;74438.56;;;-147.06;100.00
54453;BME280;40363;52.270;10.546;2023-08-01T07:10:53;74448.81;;;-147.06;100.00
54453;BME280;40363;52.270;10.546;2023-08-01T07:13:19;74455.00;;;-147.06;100.00
54453;BME280;40363;52.270;10.546;2023-08-01T07:15:47;74463.22;;;-147.06;100.00
54453;BME280;40363;52.270;10.546;2023-08-01T07:18:14;74455.00;;;-147.06;100.00
54453;BME280;40363;52.270;10.546;2023-08-01T07:20:41;74465.25;;;-147.06;100.00
54453;BME280;40363;52.270;10.546;2023-08-01T07:23:09;74459.09;;;-147.06;100.00
54453;BME280;40363;52.270;10.546;2023-08-01T07:25:35;74467.31;;;-147.06;100.00
54453;BME280;40363;52.270;10.546;2023-08-01T07:28:02;74457.03;;;-147.06;100.00
54453;BME280;40363;52.270;10.546;2023-08-01T07:30:29;74469.38;;;-147.06;100.00
54453;BME280;40363;52.270;10.546;2023-08-01T07:32:55;74469.38;;;-147.06;100.00
54453;BME280;40363;52.270;10.546;2023-08-01T07:35:22;74475.53;;;-147.06;100.00
54453;BME280;40363;52.270;10.546;2023-08-01T07:37:49;74479.63;;;-147.06;100.00
54453;BME280;40363;52.270;10.546;2023-08-01T07:40:17;74471.44;;;-147.06;100.00
54453;BME280;40363;52.270;10.546;2023-08-01T07:42:43;74467.31;;;-147.06;100.00
54453;BME280;40363;52.270;10.546;2023-08-01T07:45:11;74459.09;;;-147.06;100.00
54453;BME280;40363;52.270;10.546;2023-08-01T07:47:38;74483.75;;;-147.06;100.00
54453;BME280;40363;52.270;10.546;2023-08-01T07:50:05;74479.63;;;-147.06;100.00
54453;BME280;40363;52.270;10.546;2023-08-01T07:52:32;74491.97;;;-147.06;100.00
54453;BME280;40363;52.270;10.546;2023-08-01T07:54:58;74471.44;;;-147.06;100.00
54453;BME280;40363;52.270;10.546;2023-08-01T07:57:26;74481.69;;;-147.06;100.00
54453;BME280;40363;52.270;10.546;2023-08-01T07:59:53;74487.84;;;-147.06;100.00
54453;BME280;40363;52.270;10.546;2023-08-01T08:02:20;74483.75;;;-147.06;100.00
54453;BME280;40363;52.270;10.546;2023-08-01T08:04:46;74496.06;;;-147.06;100.00
54453;BME280;40363;52.270;10.546;2023-08-01T08:07:13;74491.97;;;-147.06;100.00
54453;BME280;40363;52.270;10.546;2023-08-01T08:09:40;74481.69;;;-147.06;100.00
54453;BME280;40363;52.270;10.546;2023-08-01T08:12:06;74483.75;;;-147.06;100.00
54453;BME280;40363;52.270;10.546;2023-08-01T08:14:35;74477.59;;;-147.06;100.00
54453;BME280;40363;52.270;10.546;2023-08-01T08:17:02;74448.81;;;-147.06;100.00
54453;BME280;40363;52.270;10.546;2023-08-01T08:19:29;74438.56;;;-147.06;100.00
54453;BME280;40363;52.270;10.546;2023-08-01T08:21:55;74446.78;;;-147.06;100.00
54453;BME280;40363;52.270;10.546;2023-08-01T08:24:22;74420.06;;;-147.06;99.96
54453;BME280;40363;52.270;10.546;2023-08-01T08:26:49;74420.06;;;-147.06;100.00
54453;BME280;40363;52.270;10.546;2023-08-01T08:29:15;74418.00;;;-147.06;99.33
54453;BME280;40363;52.270;10.546;2023-08-01T08:31:43;74393.34;;;-147.06;98.72
54453;BME280;40363;52.270;10.546;2023-08-01T08:34:10;74381.03;;;-147.06;98.54
54453;BME280;40363;52.270;10.546;2023-08-01T08:36:36;74385.16;;;-147.06;97.55
54453;BME280;40363;52.270;10.546;2023-08-01T08:39:03;74389.25;;;-147.06;97.92
54453;BME280;40363;52.270;10.546;2023-08-01T08:41:35;74395.41;;;-147.06;98.77
54453;BME280;40363;52.270;10.546;2023-08-01T08:44:06;74360.50;;;-147.06;97.20
54453;BME280;40363;52.270;10.546;2023-08-01T08:46:39;74356.38;;;-147.06;96.87
54453;BME280;40363;52.270;10.546;2023-08-01T08:49:08;74372.81;;;-147.06;97.05
54453;BME280;40363;52.270;10.546;2023-08-01T08:51:36;74335.84;;;-147.06;95.20
54453;BME280;40363;52.270;10.546;2023-08-01T08:54:03;74325.56;;;-147.06;95.17
54453;BME280;40363;52.270;10.546;2023-08-01T08:56:31;74315.28;;;-147.06;93.76
54453;BME280;40363;52.270;10.546;2023-08-01T08:58:59;74272.16;;;-147.06;92.30
54453;BME280;40363;52.270;10.546;2023-08-01T09:01:26;74239.28;;;-147.06;90.72
54453;BME280;40363;52.270;10.546;2023-08-01T09:03:52;74208.47;;;-147.06;88.76
54453;BME280;40363;52.270;10.546;2023-08-01T09:06:24;74237.22;;;-147.06;89.34
54453;BME280;40363;52.270;10.546;2023-08-01T09:08:56;74237.22;;;-147.06;88.69
54453;BME280;40363;52.270;10.546;2023-08-01T09:11:26;74276.25;;;-147.06;91.02
54453;BME280;40363;52.270;10.546;2023-08-01T09:13:53;74231.06;;;-147.06;90.41
54453;BME280;40363;52.270;10.546;2023-08-01T09:16:19;74200.25;;;-147.06;87.55
54453;BME280;40363;52.270;10.546;2023-08-01T09:18:48;74153.00;;;-147.06;86.47
54453;BME280;40363;52.270;10.546;2023-08-01T09:21:14;74011.28;;;-147.06;81.36
54453;BME280;40363;52.270;10.546;2023-08-01T09:23:42;74056.47;;;-147.06;82.21
54453;BME280;40363;52.270;10.546;2023-08-01T09:26:13;74015.38;;;-147.06;79.84
54453;BME280;40363;52.270;10.546;2023-08-01T09:28:40;74040.03;;;-147.06;79.59
54453;BME280;40363;52.270;10.546;2023-08-01T09:31:06;73966.09;;;-147.06;77.52
54453;BME280;40363;52.270;10.546;2023-08-01T09:33:38;74025.66;;;-147.06;78.72
54453;BME280;40363;52.270;10.546;2023-08-01T09:36:05;74046.19;;;-147.06;78.85
54453;BME280;40363;52.270;10.546;2023-08-01T09:38:34;74085.22;;;-147.06;79.77
54453;BME280;40363;52.270;10.546;2023-08-01T09:41:02;74109.88;;;-147.06;79.77
54453;BME280;40363;52.270;10.546;2023-08-01T09:43:33;74101.66;;;-147.06;78.74
54453;BME280;40363;52.270;10.546;2023-08-01T09:46:00;74122.19;;;-147.06;80.12
54453;BME280;40363;52.270;10.546;2023-08-01T09:48:28;73939.38;;;-147.06;74.68
54453;BME280;40363;52.270;10.546;2023-08-01T09:51:05;73888.03;;;-147.06;71.82
54453;BME280;40363;52.270;10.546;2023-08-01T09:53:32;73861.34;;;-147.06;70.33
54453;BME280;40363;52.270;10.546;2023-08-01T09:56:01;73861.34;;;-147.06;69.60
54453;BME280;40363;52.270;10.546;2023-08-01T09:58:31;73814.09;;;-147.06;69.00
54453;BME280;40363;52.270;10.546;2023-08-01T10:00:59;73727.81;;;-147.06;67.75
54453;BME280;40363;52.270;10.546;2023-08-01T10:03:27;73812.03;;;-147.06;67.50
54453;BME280;40363;52.270;10.546;2023-08-01T10:05:55;73855.16;;;-147.06;67.96
54453;BME280;40363;52.270;10.546;2023-08-01T10:08:22;73867.50;;;-147.06;68.43
54453;BME280;40363;52.270;10.546;2023-08-01T10:10:49;73849.00;;;-147.06;66.49
54453;BME280;40363;52.270;10.546;2023-08-01T10:13:18;73801.75;;;-147.06;66.38
54453;BME280;40363;52.270;10.546;2023-08-01T10:15:47;73881.88;;;-147.06;66.81
54453;BME280;40363;52.270;10.546;2023-08-01T10:18:14;73959.94;;;-147.06;69.47
54453;BME280;40363;52.270;10.546;2023-08-01T10:20:44;73982.53;;;-147.06;69.01
54453;BME280;40363;52.270;10.546;2023-08-01T10:23:11;74019.50;;;-147.06;70.31
54453;BME280;40363;52.270;10.546;2023-08-01T10:25:39;73961.97;;;-147.06;68.83
54453;BME280;40363;52.270;10.546;2023-08-01T10:28:06;73908.56;;;-147.06;65.75
54453;BME280;40363;52.270;10.546;2023-08-01T10:30:34;73931.16;;;-147.06;65.04
54453;BME280;40363;52.270;10.546;2023-08-01T10:33:00;73888.03;;;-147.06;64.80
54453;BME280;40363;52.270;10.546;2023-08-01T10:35:34;73972.25;;;-147.06;66.74
54453;BME280;40363;52.270;10.546;2023-08-01T10:38:05;73957.88;;;-147.06;67.03
54453;BME280;40363;52.270;10.546;2023-08-01T10:40:36;73898.31;;;-147.06;65.62
54453;BME280;40363;52.270;10.546;2023-08-01T10:43:03;73824.34;;;-147.06;63.86
54453;BME280;40363;52.270;10.546;2023-08-01T10:45:29;73838.75;;;-147.06;64.75
54453;BME280;40363;52.270;10.546;2023-08-01T10:48:07;73883.94;;;-147.06;65.95
54453;BME280;40363;52.270;10.546;2023-08-01T10:50:35;73906.53;;;-147.06;67.16
54453;BME280;40363;52.270;10.546;2023-08-01T10:53:02;73959.94;;;-147.06;67.56
54453;BME280;40363;52.270;10.546;2023-08-01T10:55:39;73801.75;;;-147.06;64.23
54453;BME280;40363;52.270;10.546;2023-08-01T10:58:06;73789.44;;;-147.06;63.04
54453;BME280;40363;52.270;10.546;2023-08-01T11:00:32;73904.47;;;-147.06;65.71
54453;BME280;40363;52.270;10.546;2023-08-01T11:02:59;73970.19;;;-147.06;67.68
54453;BME280;40363;52.270;10.546;2023-08-01T11:05:28;73885.97;;;-147.06;66.33
54453;BME280;40363;52.270;10.546;2023-08-01T11:07:56;73840.78;;;-147.06;61.83
54453;BME280;40363;52.270;10.546;2023-08-01T11:10:27;73816.13;;;-147.06;60.04
54453;BME280;40363;52.270;10.546;2023-08-01T11:12:54;73805.88;;;-147.06;59.29
54453;BME280;40363;52.270;10.546;2023-08-01T11:15:21;73764.78;;;-147.06;57.87
54453;BME280;40363;52.270;10.546;2023-08-01T11:17:49;73855.16;;;-147.06;59.43
54453;BME280;40363;52.270;10.546;2023-08-01T11:20:17;73832.56;;;-147.06;60.82
54453;BME280;40363;52.270;10.546;2023-08-01T11:22:53;73890.09;;;-147.06;60.26
54453;BME280;40363;52.270;10.546;2023-08-01T11:25:35;73916.78;;;-147.06;61.24
54453;BME280;40363;52.270;10.546;2023-08-01T11:28:05;73929.13;;;-147.06;61.82
54453;BME280;40363;52.270;10.546;2023-08-01T11:30:31;73879.81;;;-147.06;61.38
54453;BME280;40363;52.270;10.546;2023-08-01T11:32:58;73875.72;;;-147.06;60.45
54453;BME280;40363;52.270;10.546;2023-08-01T11:35:25;73898.31;;;-147.06;61.84
54453;BME280;40363;52.270;10.546;2023-08-01T11:37:53;73890.09;;;-147.06;61.29
54453;BME280;40363;52.270;10.546;2023-08-01T11:40:20;73892.13;;;-147.06;62.32
54453;BME280;40363;52.270;10.546;2023-08-01T11:42:48;73927.06;;;-147.06;61.74
54453;BME280;40363;52.270;10.546;2023-08-01T11:45:19;73885.97;;;-147.06;61.17
54453;BME280;40363;52.270;10.546;2023-08-01T11:47:47;73863.38;;;-147.06;58.94
54453;BME280;40363;52.270;10.546;2023-08-01T11:50:14;73883.94;;;-147.06;59.48
54453;BME280;40363;52.270;10.546;2023-08-01T11:52:46;73869.53;;;-147.06;58.50
54453;BME280;40363;52.270;10.546;2023-08-01T11:55:20;73879.81;;;-147.06;58.07
54453;BME280;40363;52.270;10.546;2023-08-01T11:57:54;73851.06;;;-147.06;57.52
54453;BME280;40363;52.270;10.546;2023-08-01T12:00:22;73883.94;;;-147.06;57.89
54453;BME280;40363;52.270;10.546;2023-08-01T12:02:49;73869.53;;;-147.06;57.86
54453;BME280;40363;52.270;10.546;2023-08-01T12:05:21;73853.13;;;-147.06;57.44
54453;BME280;40363;52.270;10.546;2023-08-01T12:07:48;73851.06;;;-147.06;56.44
54453;BME280;40363;52.270;10.546;2023-08-01T12:10:15;73867.50;;;-147.06;57.19
54453;BME280;40363;52.270;10.546;2023-08-01T12:12:46;73867.50;;;-147.06;57.90
54453;BME280;40363;52.270;10.546;2023-08-01T12:15:13;73947.59;;;-147.06;58.39
54453;BME280;40363;52.270;10.546;2023-08-01T12:17:40;73937.34;;;-147.06;59.19
54453;BME280;40363;52.270;10.546;2023-08-01T12:20:08;73937.34;;;-147.06;59.43
54453;BME280;40363;52.270;10.546;2023-08-01T12:22:34;73931.16;;;-147.06;58.89
54453;BME280;40363;52.270;10.546;2023-08-01T12:25:01;73925.00;;;-147.06;58.35